Time;durP1;ratioP1;P1;durP2;ratioP2;P2;SDS_P1;SDS_P2;PMS_P1;PMS_P2;Temp;Humidity;BMP_temperature;BMP_pressure;BME280_temperature;BME280_humidity;BME280_pressure;Samples;Min_cycle;Max_cycle;Signal;HPM_P1;HPM_P2
2022/09/11 00:02:21;;;;;;;4.15;2.17;;;;;;;16.20;100.00;100539.59;5211152;28;20506;-75
2022/09/11 00:04:51;;;;;;;3.25;2.17;;;;;;;16.35;100.00;100537.88;5213032;28;20110;-75
2022/09/11 00:07:21;;;;;;;2.50;1.58;;;;;;;16.35;100.00;100543.16;5208806;28;20021;-75
2022/09/11 00:09:52;;;;;;;2.88;1.60;;;;;;;16.37;100.00;100538.63;5212928;28;20458;-75
2022/09/11 00:12:22;;;;;;;2.60;1.60;;;;;;;16.43;100.00;100536.47;5211622;28;20094;-74
2022/09/11 00:14:52;;;;;;;4.55;1.90;;;;;;;16.36;100.00;100539.56;5211574;28;20274;-75
2022/09/11 00:17:22;;;;;;;3.65;1.75;;;;;;;16.36;100.00;100532.50;5177622;28;20025;-74
2022/09/11 00:19:53;;;;;;;3.45;1.85;;;;;;;16.49;100.00;100536.09;5206806;28;20446;-75
2022/09/11 00:22:23;;;;;;;2.25;1.60;;;;;;;16.39;100.00;100539.38;5179320;28;20029;-74
2022/09/11 00:24:54;;;;;;;3.15;1.70;;;;;;;16.40;100.00;100541.91;5201024;28;20053;-74
2022/09/11 00:27:24;;;;;;;2.58;2.10;;;;;;;16.36;100.00;100540.41;5205304;28;20029;-75
2022/09/11 00:29:54;;;;;;;3.47;1.88;;;;;;;16.56;100.00;100537.41;5215163;28;20378;-75
2022/09/11 00:32:24;;;;;;;4.82;1.85;;;;;;;16.45;100.00;100534.59;5204688;28;20104;-74
2022/09/11 00:34:55;;;;;;;3.10;1.80;;;;;;;16.40;100.00;100536.63;5213071;28;20028;-74
2022/09/11 00:37:25;;;;;;;3.60;1.90;;;;;;;16.15;100.00;100541.66;5208365;28;20021;-74
2022/09/11 00:39:55;;;;;;;4.03;2.17;;;;;;;16.22;100.00;100536.88;5193988;28;20491;-74
2022/09/11 00:42:26;;;;;;;3.90;2.10;;;;;;;16.18;100.00;100535.34;5210703;28;20025;-74
2022/09/11 00:44:59;;;;;;;3.53;2.20;;;;;;;15.97;100.00;100541.88;5211358;28;20030;-75
2022/09/11 00:47:30;;;;;;;3.30;1.95;;;;;;;16.14;100.00;100544.38;5211142;28;20729;-74
2022/09/11 00:50:08;;;;;;;3.72;2.40;;;;;;;16.08;100.00;100540.28;5191037;28;20025;-72
2022/09/11 00:52:47;;;;;;;4.35;2.20;;;;;;;16.10;100.00;100548.13;5192767;28;20220;-74
2022/09/11 00:55:20;;;;;;;4.25;2.13;;;;;;;16.19;100.00;100544.97;5212037;28;20543;-74
2022/09/11 00:57:58;;;;;;;3.70;2.00;;;;;;;16.22;100.00;100542.97;5206350;28;20055;-75
2022/09/11 01:00:29;;;;;;;5.65;2.33;;;;;;;16.29;100.00;100544.34;5203266;28;20703;-75
2022/09/11 01:03:00;;;;;;;5.38;2.58;;;;;;;16.30;100.00;100534.59;5211886;28;20020;-74
2022/09/11 01:05:33;;;;;;;2.88;2.05;;;;;;;16.37;100.00;100543.91;5209049;28;20454;-74
2022/09/11 01:08:05;;;;;;;4.90;2.60;;;;;;;16.19;100.00;100540.53;5176043;28;20043;-74
2022/09/11 01:11:12;;;;;;;4.70;2.70;;;;;;;16.05;100.00;100547.56;5212054;28;20403;-74
2022/09/11 01:13:51;;;;;;;;;;;;;;;16.14;100.00;100539.97;5209729;28;20033;-74
2022/09/11 01:16:33;;;;;;;4.40;2.90;;;;;;;16.16;100.00;100535.44;5211213;28;19963;-74
2022/09/11 01:19:23;;;;;;;5.05;3.10;;;;;;;16.23;100.00;100549.13;5188135;28;20171;-72
2022/09/11 01:22:06;;;;;;;6.35;3.20;;;;;;;16.07;100.00;100543.88;5205172;23;20431;-79
2022/09/11 01:25:26;;;;;;;5.32;3.40;;;;;;;16.14;100.00;100545.22;5205331;28;20041;-79
2022/09/11 01:27:59;;;;;;;5.00;3.30;;;;;;;16.11;100.00;100540.13;5166119;28;20037;-76
2022/09/11 01:30:38;;;;;;;5.85;3.88;;;;;;;15.94;100.00;100542.03;5204104;28;20044;-77
2022/09/11 01:33:43;;;;;;;5.55;3.90;;;;;;;15.85;100.00;100546.06;5209674;28;20429;-76
2022/09/11 01:36:20;;;;;;;5.78;4.22;;;;;;;15.86;100.00;100547.75;5160327;28;20114;-76
2022/09/11 01:39:03;;;;;;;7.28;4.40;;;;;;;15.85;100.00;100547.88;5211057;28;20108;-77
2022/09/11 01:41:49;;;;;;;7.10;4.20;;;;;;;15.73;100.00;100551.19;5207746;28;20023;-77
2022/09/11 01:44:28;;;;;;;5.75;4.00;;;;;;;15.65;100.00;100556.03;5210362;28;20600;-76
2022/09/11 01:47:02;;;;;;;5.75;4.03;;;;;;;15.67;100.00;100554.19;5203758;28;20036;-76
2022/09/11 01:49:38;;;;;;;5.10;3.92;;;;;;;15.51;100.00;100559.44;5210129;28;20054;-77
2022/09/11 01:52:14;;;;;;;7.15;4.55;;;;;;;15.51;100.00;100562.09;5208920;28;20259;-76
2022/09/11 01:54:50;;;;;;;6.78;4.70;;;;;;;15.60;100.00;100564.22;5208820;28;20083;-76
2022/09/11 01:57:54;;;;;;;7.22;4.97;;;;;;;15.55;100.00;100558.34;5207386;28;20059;-76
2022/09/11 02:00:24;;;;;;;8.15;5.07;;;;;;;15.71;100.00;100563.59;5199175;28;20033;-77
2022/09/11 02:02:59;;;;;;;7.93;5.10;;;;;;;15.67;100.00;100576.09;5211370;28;20093;-76
2022/09/11 02:05:44;;;;;;;11.18;5.28;;;;;;;15.70;100.00;100565.38;5207750;28;20522;-76
2022/09/11 02:08:19;;;;;;;7.57;5.53;;;;;;;15.55;100.00;100573.31;5206075;28;20048;-77
2022/09/11 02:10:56;;;;;;;6.82;5.25;;;;;;;15.52;100.00;100571.69;5211233;28;20107;-77
2022/09/11 02:13:50;;;;;;;8.20;5.88;;;;;;;15.29;100.00;100573.88;5178897;28;20486;-76
2022/09/11 02:16:38;;;;;;;5.97;5.28;;;;;;;15.29;100.00;100582.66;5206986;28;20139;-77
2022/09/11 02:19:16;;;;;;;8.48;5.60;;;;;;;15.26;100.00;100579.28;5206540;28;20029;-77
2022/09/11 02:21:47;;;;;;;7.15;5.68;;;;;;;15.15;100.00;100586.94;5207386;28;20025;-77
2022/09/11 02:24:19;;;;;;;8.98;5.55;;;;;;;14.98;100.00;100595.72;5209239;28;20138;-77
2022/09/11 02:26:54;;;;;;;9.73;5.50;;;;;;;15.05;100.00;100594.44;5206656;28;20272;-77
2022/09/11 02:29:25;;;;;;;;;;;;;;;15.02;100.00;100586.72;5196378;28;20025;-76
2022/09/11 02:31:55;;;;;;;9.05;5.45;;;;;;;15.11;100.00;100596.78;5210314;28;20420;-75
2022/09/11 02:34:32;;;;;;;9.52;5.43;;;;;;;15.11;100.00;100596.78;5205894;28;20028;-76
2022/09/11 02:37:14;;;;;;;7.78;5.43;;;;;;;14.99;100.00;100599.22;5208345;28;20040;-77
2022/09/11 02:40:03;;;;;;;8.68;5.70;;;;;;;14.78;100.00;100599.50;5209027;28;20044;-76
2022/09/11 02:43:10;;;;;;;9.20;6.07;;;;;;;14.82;100.00;100598.38;5208986;28;20507;-77
2022/09/11 02:46:22;;;;;;;9.75;6.10;;;;;;;15.14;100.00;100601.00;5206242;28;20041;-76
2022/09/11 02:49:25;;;;;;;8.68;6.85;;;;;;;15.23;100.00;100606.66;5209014;28;20517;-76
2022/09/11 02:51:58;;;;;;;10.40;7.13;;;;;;;15.43;100.00;100601.19;5188619;28;20039;-75
2022/09/11 02:54:41;;;;;;;11.40;7.78;;;;;;;15.39;100.00;100590.88;5209263;28;20397;-77
2022/09/11 02:57:29;;;;;;;10.82;7.72;;;;;;;15.46;100.00;100608.91;5207166;28;20410;-76
2022/09/11 03:00:03;;;;;;;12.18;9.07;;;;;;;15.61;100.00;100612.47;5199487;28;20041;-77
2022/09/11 03:02:37;;;;;;;13.93;10.52;;;;;;;15.78;100.00;100615.03;5207606;28;20029;-77
2022/09/11 03:05:09;;;;;;;15.15;10.60;;;;;;;15.79;100.00;100622.00;5203476;28;20049;-77
2022/09/11 03:07:40;;;;;;;20.85;13.13;;;;;;;15.82;100.00;100622.69;5206061;28;20021;-77
2022/09/11 03:10:10;;;;;;;20.05;13.43;;;;;;;15.80;100.00;100619.28;5209970;28;20389;-76
2022/09/11 03:12:40;;;;;;;17.40;12.93;;;;;;;15.72;100.00;100618.84;5208990;28;20026;-74
2022/09/11 03:15:11;;;;;;;20.95;14.23;;;;;;;15.71;100.00;100622.41;5208267;28;20030;-75
2022/09/11 03:17:41;;;;;;;19.60;14.55;;;;;;;15.76;100.00;100617.75;5206856;28;20068;-76
2022/09/11 03:20:12;;;;;;;24.33;16.15;;;;;;;15.71;100.00;100625.03;5173973;28;20116;-76
2022/09/11 03:22:42;;;;;;;29.35;17.48;;;;;;;15.73;100.00;100633.72;5207627;28;20546;-77
2022/09/11 03:25:13;;;;;;;27.95;18.20;;;;;;;15.62;100.00;100638.75;5208622;28;20041;-76
2022/09/11 03:27:44;;;;;;;31.17;17.77;;;;;;;15.59;100.00;100640.69;5206301;28;20060;-77
2022/09/11 03:30:14;;;;;;;29.73;17.33;;;;;;;15.42;100.00;100644.25;5208093;28;20560;-76
2022/09/11 03:32:44;;;;;;;23.55;15.45;;;;;;;15.44;100.00;100645.03;5207495;28;20025;-77
2022/09/11 03:35:15;;;;;;;24.05;14.50;;;;;;;15.44;100.00;100646.78;5203048;28;20021;-76
2022/09/11 03:37:46;;;;;;;22.73;15.18;;;;;;;15.51;100.00;100640.28;5204847;28;20032;-77
2022/09/11 03:40:16;;;;;;;23.02;15.07;;;;;;;15.42;100.00;100639.00;5208432;28;20129;-77
2022/09/11 03:42:46;;;;;;;19.77;13.95;;;;;;;15.41;100.00;100641.69;5208484;28;20071;-76
2022/09/11 03:45:17;;;;;;;22.52;14.45;;;;;;;15.47;100.00;100639.59;5209035;28;20031;-77
2022/09/11 03:47:47;;;;;;;20.60;14.25;;;;;;;15.38;100.00;100640.06;5203646;28;20033;-77
2022/09/11 03:50:18;;;;;;;19.80;13.65;;;;;;;15.45;100.00;100646.72;5208629;28;20029;-77
2022/09/11 03:52:49;;;;;;;15.88;11.98;;;;;;;15.37;100.00;100653.34;5206659;28;20606;-76
2022/09/11 03:55:19;;;;;;;19.05;12.52;;;;;;;15.29;100.00;100645.84;5191238;28;20035;-76
2022/09/11 03:57:49;;;;;;;17.48;12.00;;;;;;;15.43;100.00;100647.72;5206853;28;20048;-77
2022/09/11 04:00:20;;;;;;;15.77;11.68;;;;;;;15.26;100.00;100653.88;5212816;28;20111;-77
2022/09/11 04:02:50;;;;;;;13.85;10.52;;;;;;;15.32;100.00;100656.22;5211368;28;20562;-77
2022/09/11 04:05:23;;;;;;;13.45;10.73;;;;;;;15.33;100.00;100659.72;5205382;28;20086;-77
2022/09/11 04:07:54;;;;;;;14.77;11.02;;;;;;;15.19;100.00;100665.66;5203969;28;20458;-77
2022/09/11 04:10:24;;;;;;;14.43;10.00;;;;;;;14.95;100.00;100666.09;5210712;28;20059;-77
2022/09/11 04:12:54;;;;;;;15.73;9.45;;;;;;;14.70;100.00;100680.56;5198145;28;20561;-77
2022/09/11 04:15:25;;;;;;;11.70;8.95;;;;;;;14.68;100.00;100690.31;5209596;28;20033;-77
2022/09/11 04:17:55;;;;;;;11.70;8.32;;;;;;;14.73;100.00;100685.72;5212012;28;20490;-77
2022/09/11 04:20:28;;;;;;;12.02;8.95;;;;;;;14.65;100.00;100686.09;5208844;28;20180;-77
2022/09/11 04:22:58;;;;;;;11.05;8.05;;;;;;;14.71;100.00;100696.28;5212376;28;20028;-77
2022/09/11 04:25:29;;;;;;;16.27;9.45;;;;;;;14.65;100.00;100690.50;5209599;28;20375;-77
2022/09/11 04:28:00;;;;;;;12.57;9.30;;;;;;;14.75;100.00;100699.63;5211007;28;20028;-77
2022/09/11 04:30:34;;;;;;;11.77;9.15;;;;;;;14.78;100.00;100700.31;5209331;28;20391;-77
2022/09/11 04:33:05;;;;;;;13.98;9.80;;;;;;;14.74;100.00;100701.41;5211334;28;20357;-77
2022/09/11 04:35:39;;;;;;;11.77;9.15;;;;;;;14.76;100.00;100703.97;5204738;28;20411;-77
2022/09/11 04:38:09;;;;;;;13.88;10.15;;;;;;;14.76;100.00;100698.69;5203132;28;20107;-75
2022/09/11 04:40:39;;;;;;;14.18;11.20;;;;;;;14.66;100.00;100703.59;5212945;28;20033;-77
2022/09/11 04:43:10;;;;;;;13.50;10.23;;;;;;;14.66;100.00;100703.59;5211436;28;20017;-76
2022/09/11 04:45:41;;;;;;;14.80;10.68;;;;;;;14.73;100.00;100701.50;5209722;28;20348;-77
2022/09/11 04:48:11;;;;;;;15.07;10.48;;;;;;;14.72;100.00;100700.63;5191688;28;20029;-77
2022/09/11 04:50:41;;;;;;;15.65;11.10;;;;;;;14.85;100.00;100705.19;5210106;28;20036;-77
2022/09/11 04:53:12;;;;;;;15.02;10.80;;;;;;;14.92;100.00;100706.59;5193073;28;20554;-77
2022/09/11 04:55:43;;;;;;;14.15;10.30;;;;;;;14.85;100.00;100706.97;5209585;28;20037;-77
2022/09/11 04:58:13;;;;;;;16.00;11.32;;;;;;;14.94;100.00;100699.47;5209098;28;20391;-77
2022/09/11 05:00:43;;;;;;;16.25;11.25;;;;;;;15.01;100.00;100706.09;5210065;28;20490;-77
2022/09/11 05:03:13;;;;;;;15.98;10.73;;;;;;;14.97;100.00;100707.19;5207627;28;20029;-76
2022/09/11 05:05:44;;;;;;;15.68;10.45;;;;;;;15.02;100.00;100714.88;5203339;28;20044;-77
2022/09/11 05:08:14;;;;;;;21.40;11.50;;;;;;;14.87;100.00;100708.59;5201696;28;20438;-77
2022/09/11 05:10:45;;;;;;;23.75;12.07;;;;;;;14.79;100.00;100719.59;5212020;28;20035;-76
2022/09/11 05:13:16;;;;;;;17.48;11.60;;;;;;;14.97;100.00;100717.72;5211561;28;20029;-77
2022/09/11 05:15:46;;;;;;;18.30;11.82;;;;;;;15.00;100.00;100722.84;5208263;28;20040;-77
2022/09/11 05:18:16;;;;;;;17.48;11.90;;;;;;;15.03;100.00;100729.72;5204842;28;20074;-76
2022/09/11 05:20:47;;;;;;;17.70;11.48;;;;;;;15.20;100.00;100716.56;5207777;28;20132;-77
2022/09/11 05:23:17;;;;;;;18.60;11.73;;;;;;;15.30;100.00;100717.78;5192582;28;20060;-77
2022/09/11 05:25:47;;;;;;;17.83;11.52;;;;;;;15.12;100.00;100732.75;5208710;28;20037;-76
2022/09/11 05:28:18;;;;;;;15.80;11.35;;;;;;;15.08;100.00;100731.19;5209868;28;20079;-77
2022/09/11 05:30:48;;;;;;;17.35;10.98;;;;;;;15.21;100.00;100732.25;5208819;28;20040;-76
2022/09/11 05:33:22;;;;;;;16.80;11.50;;;;;;;15.27;100.00;100744.25;5209511;28;20091;-77
2022/09/11 05:35:54;;;;;;;20.90;12.80;;;;;;;15.25;100.00;100740.84;5211411;28;20052;-77
2022/09/11 05:38:25;;;;;;;18.98;12.45;;;;;;;15.18;100.00;100742.94;5202329;28;20021;-77
2022/09/11 05:40:55;;;;;;;19.00;12.57;;;;;;;15.10;100.00;100745.13;5211582;28;20055;-77
2022/09/11 05:43:25;;;;;;;20.25;12.95;;;;;;;15.20;100.00;100748.16;5211437;28;20036;-77
2022/09/11 05:45:57;;;;;;;22.27;12.75;;;;;;;15.27;100.00;100750.38;5206963;28;20509;-77
2022/09/11 05:48:29;;;;;;;22.60;13.18;;;;;;;15.31;100.00;100744.06;5197599;28;20033;-77
2022/09/11 05:51:01;;;;;;;25.00;13.80;;;;;;;15.22;100.00;100751.53;5190202;28;20029;-76
2022/09/11 05:53:32;;;;;;;26.67;14.02;;;;;;;15.15;100.00;100760.72;5210196;28;20028;-77
2022/09/11 05:56:17;;;;;;;29.05;15.05;;;;;;;15.21;100.00;100770.91;5204888;28;20418;-77
2022/09/11 05:58:50;;;;;;;26.83;13.95;;;;;;;15.24;100.00;100770.75;5207567;28;20021;-77
2022/09/11 06:01:23;;;;;;;29.42;14.63;;;;;;;15.25;100.00;100778.59;5191374;28;20036;-77
2022/09/11 06:03:54;;;;;;;29.48;14.35;;;;;;;15.27;100.00;100771.44;5193202;28;20027;-77
2022/09/11 06:06:24;;;;;;;25.45;12.80;;;;;;;15.18;100.00;100771.91;5202530;28;20029;-77
2022/09/11 06:08:55;;;;;;;26.45;13.60;;;;;;;15.29;100.00;100779.28;5210990;28;20029;-77
2022/09/11 06:11:25;;;;;;;25.23;12.43;;;;;;;15.26;100.00;100785.56;5207944;28;20028;-75
2022/09/11 06:13:55;;;;;;;22.08;11.35;;;;;;;15.34;100.00;100788.66;5209112;28;20037;-77
2022/09/11 06:16:26;;;;;;;20.88;9.98;;;;;;;15.37;100.00;100787.66;5205842;28;20495;-77
2022/09/11 06:18:56;;;;;;;21.88;11.25;;;;;;;15.29;100.00;100790.69;5198066;28;20037;-77
2022/09/11 06:21:28;;;;;;;20.40;10.68;;;;;;;15.23;100.00;100798.00;5210651;28;20441;-77
2022/09/11 06:23:58;;;;;;;17.98;10.05;;;;;;;15.34;100.00;100804.47;5207000;28;20547;-77
2022/09/11 06:26:28;;;;;;;23.38;12.27;;;;;;;15.32;100.00;100795.78;5206872;28;20116;-76
2022/09/11 06:28:59;;;;;;;21.65;10.65;;;;;;;15.38;100.00;100807.81;5204579;28;20021;-77
2022/09/11 06:31:29;;;;;;;22.15;10.85;;;;;;;15.47;100.00;100792.38;5203437;28;20029;-77
2022/09/11 06:33:59;;;;;;;20.52;10.50;;;;;;;15.39;100.00;100801.59;5202173;28;20095;-77
2022/09/11 06:36:30;;;;;;;19.85;10.50;;;;;;;15.51;100.00;100803.63;5201110;28;20056;-75
2022/09/11 06:39:01;;;;;;;22.75;12.30;;;;;;;15.50;100.00;100807.19;5203310;28;20105;-77
2022/09/11 06:41:31;;;;;;;21.30;11.25;;;;;;;15.60;100.00;100806.63;5204593;28;20025;-77
2022/09/11 06:44:02;;;;;;;23.58;11.75;;;;;;;15.65;100.00;100809.84;5209543;28;20017;-77
2022/09/11 06:46:32;;;;;;;22.90;11.52;;;;;;;15.67;100.00;100813.25;5209100;28;20498;-76
2022/09/11 06:49:03;;;;;;;24.60;11.52;;;;;;;15.66;100.00;100822.09;5206918;28;20032;-77
2022/09/11 06:51:34;;;;;;;23.02;10.95;;;;;;;15.67;100.00;100821.16;5209340;28;20025;-77
2022/09/11 06:54:05;;;;;;;24.73;11.93;;;;;;;15.65;100.00;100825.66;5205124;28;20100;-77
2022/09/11 06:56:35;;;;;;;22.30;11.63;;;;;;;15.74;100.00;100833.06;5197632;28;20112;-75
2022/09/11 06:59:06;;;;;;;23.90;11.40;;;;;;;15.65;100.00;100830.94;5202271;28;20497;-76
2022/09/11 07:01:38;;;;;;;23.55;11.70;;;;;;;15.75;100.00;100833.94;5185012;28;20071;-77
2022/09/11 07:04:09;;;;;;;22.20;11.13;;;;;;;15.71;100.00;100842.94;5209249;28;20048;-77
2022/09/11 07:06:39;;;;;;;25.60;11.85;;;;;;;15.74;100.00;100840.97;5203391;28;20389;-77
2022/09/11 07:09:10;;;;;;;20.40;11.55;;;;;;;15.70;100.00;100834.16;5200585;28;20045;-77
2022/09/11 07:11:43;;;;;;;20.25;11.07;;;;;;;15.81;100.00;100831.84;5207212;28;20029;-77
2022/09/11 07:14:19;;;;;;;21.42;11.93;;;;;;;15.77;100.00;100835.56;5207266;28;20387;-77
2022/09/11 07:16:51;;;;;;;22.98;12.43;;;;;;;15.79;100.00;100833.69;5203591;28;20044;-77
2022/09/11 07:19:24;;;;;;;23.80;12.20;;;;;;;15.91;100.00;100835.66;5203704;28;20067;-77
2022/09/11 07:21:54;;;;;;;22.90;11.75;;;;;;;15.87;100.00;100831.50;5210206;23;20042;-73
2022/09/11 07:24:24;;;;;;;22.60;11.65;;;;;;;15.94;100.00;100837.31;5195697;28;20033;-72
2022/09/11 07:26:55;;;;;;;21.13;11.25;;;;;;;16.00;100.00;100835.19;5197362;28;20372;-72
2022/09/11 07:29:25;;;;;;;20.17;10.75;;;;;;;16.16;100.00;100836.06;5209489;28;20637;-73
2022/09/11 07:31:57;;;;;;;19.88;10.63;;;;;;;16.19;100.00;100841.19;5203683;28;20037;-72
2022/09/11 07:34:27;;;;;;;24.67;12.77;;;;;;;16.18;100.00;100842.13;5211145;28;20029;-72
2022/09/11 07:36:58;;;;;;;22.33;11.50;;;;;;;16.16;100.00;100846.63;5186963;28;20410;-72
2022/09/11 07:39:28;;;;;;;22.35;12.40;;;;;;;16.07;100.00;100844.47;5191252;28;20386;-73
2022/09/11 07:41:58;;;;;;;24.67;12.77;;;;;;;16.06;100.00;100855.94;5208314;28;20629;-73
2022/09/11 07:44:29;;;;;;;26.25;13.50;;;;;;;16.21;100.00;100862.22;5205759;28;20037;-73
2022/09/11 07:46:59;;;;;;;23.50;13.40;;;;;;;16.28;100.00;100853.88;5211977;28;20380;-73
2022/09/11 07:49:30;;;;;;;25.27;14.07;;;;;;;16.10;100.00;100854.88;5209975;28;20025;-73
2022/09/11 07:52:02;;;;;;;27.67;14.45;;;;;;;16.28;100.00;100861.78;5209274;28;20253;-73
2022/09/11 07:54:32;;;;;;;24.95;13.85;;;;;;;16.17;100.00;100861.50;5209266;28;20045;-73
2022/09/11 07:57:02;;;;;;;27.50;14.60;;;;;;;16.28;100.00;100864.44;5209743;28;20551;-72
2022/09/11 07:59:33;;;;;;;28.92;14.68;;;;;;;16.18;100.00;100863.22;5211760;28;20074;-72
2022/09/11 08:02:03;;;;;;;26.45;13.98;;;;;;;16.06;100.00;100858.59;5204945;28;20522;-73
2022/09/11 08:04:34;;;;;;;28.33;15.30;;;;;;;16.20;100.00;100863.97;5210167;28;20032;-73
2022/09/11 08:07:05;;;;;;;27.90;14.65;;;;;;;16.24;100.00;100868.16;5209727;28;20057;-73
2022/09/11 08:09:35;;;;;;;27.50;15.80;;;;;;;16.20;100.00;100871.06;5211328;28;20044;-73
2022/09/11 08:12:06;;;;;;;31.98;16.65;;;;;;;16.29;100.00;100871.41;5211778;28;20029;-73
2022/09/11 08:14:36;;;;;;;34.05;16.65;;;;;;;16.28;100.00;100874.97;5211153;28;20107;-72
2022/09/11 08:17:07;;;;;;;31.55;18.10;;;;;;;16.22;100.00;100875.28;5207625;28;20036;-73
2022/09/11 08:19:37;;;;;;;31.05;16.73;;;;;;;16.32;100.00;100873.00;5209635;28;20391;-73
2022/09/11 08:22:08;;;;;;;35.97;18.05;;;;;;;16.36;100.00;100878.06;5197442;28;20048;-73
2022/09/11 08:24:38;;;;;;;35.28;18.85;;;;;;;16.21;100.00;100878.88;5204781;28;20400;-73
2022/09/11 08:27:09;;;;;;;34.00;17.48;;;;;;;16.23;100.00;100887.53;5202715;28;20025;-73
2022/09/11 08:29:39;;;;;;;34.95;18.33;;;;;;;16.26;100.00;100883.91;5206158;28;20526;-73
2022/09/11 08:32:09;;;;;;;29.85;18.17;;;;;;;16.38;100.00;100892.03;5205564;28;20432;-73
2022/09/11 08:34:41;;;;;;;36.17;19.35;;;;;;;16.43;100.00;100889.16;5209640;28;20049;-73
2022/09/11 08:37:11;;;;;;;33.28;18.90;;;;;;;16.60;100.00;100897.00;5196105;28;20029;-73
2022/09/11 08:39:41;;;;;;;38.65;19.33;;;;;;;16.63;100.00;100902.97;5201538;28;20746;-73
2022/09/11 08:42:15;;;;;;;33.47;18.65;;;;;;;16.71;100.00;100905.19;5199278;28;20041;-72
2022/09/11 08:44:49;;;;;;;33.13;19.17;;;;;;;16.66;100.00;100907.22;5183412;28;20037;-73
2022/09/11 08:47:30;;;;;;;34.90;19.35;;;;;;;16.64;100.00;100907.31;5203776;28;20662;-73
2022/09/11 08:50:04;;;;;;;32.03;18.08;;;;;;;16.72;100.00;100918.28;5197607;28;20044;-72
2022/09/11 08:52:35;;;;;;;33.03;18.67;;;;;;;16.77;100.00;100912.75;5206543;28;20471;-73
2022/09/11 08:55:12;;;;;;;35.13;19.70;;;;;;;16.69;100.00;100902.63;5204448;28;20033;-73
2022/09/11 08:58:36;;;;;;;34.83;20.13;;;;;;;16.77;100.00;100906.53;5197160;28;20129;-73
2022/09/11 09:01:35;;;;;;;31.13;19.35;;;;;;;16.84;100.00;100909.69;5128622;28;20046;-73
2022/09/11 09:04:25;;;;;;;35.50;18.92;;;;;;;16.91;100.00;100918.97;5200736;28;20040;-73
2022/09/11 09:07:09;;;;;;;33.97;19.38;;;;;;;16.97;100.00;100918.66;5201978;28;20024;-73
2022/09/11 09:09:51;;;;;;;33.15;18.17;;;;;;;16.97;100.00;100916.00;5205651;28;20144;-73
2022/09/11 09:13:16;;;;;;;34.65;19.38;;;;;;;17.03;100.00;100913.00;5206042;28;20036;-72
2022/09/11 09:16:19;;;;;;;34.15;18.85;;;;;;;16.98;100.00;100925.63;5139022;28;20121;-73
2022/09/11 09:19:02;;;;;;;33.92;18.92;;;;;;;17.08;100.00;100924.16;5196550;28;20040;-73
2022/09/11 09:21:45;;;;;;;32.75;18.98;;;;;;;17.15;100.00;100922.88;5204512;28;20041;-72
2022/09/11 09:24:18;;;;;;;31.67;19.15;;;;;;;16.94;100.00;100919.66;5207000;28;20025;-73
2022/09/11 09:26:55;;;;;;;31.15;18.02;;;;;;;17.01;100.00;100922.81;5197445;28;20037;-73
2022/09/11 09:29:30;;;;;;;33.05;19.40;;;;;;;17.24;100.00;100917.06;5197959;28;20034;-73
2022/09/11 09:32:07;;;;;;;32.05;19.23;;;;;;;17.45;100.00;100915.88;5198292;28;20041;-73
2022/09/11 09:34:41;;;;;;;34.40;19.50;;;;;;;17.58;100.00;100927.41;5202783;28;20076;-72
2022/09/11 09:37:22;;;;;;;32.10;18.30;;;;;;;17.87;100.00;100927.41;5198729;28;20268;-73
2022/09/11 09:39:53;;;;;;;33.38;20.38;;;;;;;17.72;100.00;100930.97;5203252;28;20195;-73
2022/09/11 09:42:49;;;;;;;32.67;20.15;;;;;;;17.91;100.00;100928.94;5206215;28;20142;-73
2022/09/11 09:45:47;;;;;;;34.28;20.20;;;;;;;17.85;100.00;100941.66;5205774;28;20732;-73
2022/09/11 09:48:18;;;;;;;33.20;18.27;;;;;;;17.94;100.00;100935.81;5200127;28;20024;-73
2022/09/11 09:50:48;;;;;;;33.17;18.92;;;;;;;18.18;100.00;100929.88;5199367;28;20514;-73
2022/09/11 09:53:28;;;;;;;30.05;18.70;;;;;;;18.13;100.00;100929.34;5202595;28;20130;-73
2022/09/11 09:56:03;;;;;;;28.83;18.02;;;;;;;18.49;100.00;100936.84;5200188;28;20569;-73
2022/09/11 09:58:46;;;;;;;29.52;17.70;;;;;;;18.20;100.00;100938.59;5180423;28;20044;-72
2022/09/11 10:01:38;;;;;;;26.95;16.13;;;;;;;18.60;100.00;100939.66;5202666;28;20194;-73
2022/09/11 10:04:20;;;;;;;26.67;16.85;;;;;;;18.44;100.00;100945.06;5205172;28;20029;-73
2022/09/11 10:06:54;;;;;;;27.58;17.15;;;;;;;18.79;100.00;100933.97;5205692;28;20037;-73
2022/09/11 10:09:28;;;;;;;27.75;16.38;;;;;;;19.22;100.00;100927.66;5202876;28;20056;-73
2022/09/11 10:12:06;;;;;;;25.35;15.45;;;;;;;19.67;100.00;100929.91;5199920;28;20037;-72
2022/09/11 10:14:50;;;;;;;22.60;13.85;;;;;;;19.85;100.00;100930.47;5199999;28;20672;-73
2022/09/11 10:17:28;;;;;;;22.63;14.13;;;;;;;19.85;100.00;100933.97;5184061;28;20071;-74
2022/09/11 10:20:24;;;;;;;18.77;12.05;;;;;;;19.93;95.86;100931.63;5196349;28;20654;-73
2022/09/11 10:22:55;;;;;;;20.20;12.35;;;;;;;20.28;95.83;100932.75;5201237;28;20049;-74
2022/09/11 10:25:28;;;;;;;19.40;12.00;;;;;;;20.34;94.48;100934.13;5206330;28;20035;-73
2022/09/11 10:28:14;;;;;;;16.17;11.27;;;;;;;20.26;97.50;100939.97;5202205;28;20110;-73
2022/09/11 10:30:58;;;;;;;16.80;10.57;;;;;;;20.01;93.55;100939.06;5205231;28;20087;-73
2022/09/11 10:33:29;;;;;;;17.55;11.10;;;;;;;20.18;94.26;100942.31;5199925;28;20048;-74
2022/09/11 10:36:03;;;;;;;17.40;10.77;;;;;;;20.25;93.28;100940.91;5202950;28;20033;-73
2022/09/11 10:38:44;;;;;;;18.10;11.70;;;;;;;20.26;93.86;100934.66;5203753;28;20041;-73
2022/09/11 10:41:18;;;;;;;18.02;12.07;;;;;;;20.39;97.37;100930.19;5204901;28;20028;-74
2022/09/11 10:44:00;;;;;;;22.98;11.90;;;;;;;20.51;96.18;100929.31;5204588;28;20049;-74
2022/09/11 10:46:36;;;;;;;18.48;11.32;;;;;;;20.50;94.38;100929.44;5202648;28;20187;-73
2022/09/11 10:49:07;;;;;;;15.98;10.48;;;;;;;20.69;94.50;100928.03;5205079;28;20167;-73
2022/09/11 10:51:40;;;;;;;15.15;9.60;;;;;;;20.38;92.77;100933.81;5197818;28;20030;-73
2022/09/11 10:54:32;;;;;;;13.63;8.98;;;;;;;20.43;94.67;100931.66;5204707;28;20034;-74
2022/09/11 10:57:33;;;;;;;12.38;8.45;;;;;;;19.91;96.19;100945.94;5195136;28;20617;-73
2022/09/11 11:00:13;;;;;;;13.77;8.30;;;;;;;20.25;89.80;100943.56;5195949;28;20041;-73
2022/09/11 11:02:51;;;;;;;14.55;8.20;;;;;;;20.02;92.62;100946.97;5197985;28;20048;-73
2022/09/11 11:05:44;;;;;;;12.85;7.65;;;;;;;19.90;92.61;100955.72;5196811;28;20068;-74
2022/09/11 11:08:39;;;;;;;12.25;8.30;;;;;;;19.76;94.59;100955.81;5197448;28;20033;-73
2022/09/11 11:11:13;;;;;;;11.68;7.47;;;;;;;19.78;93.01;100953.91;5180423;28;20033;-73
2022/09/11 11:14:04;;;;;;;11.85;7.90;;;;;;;19.70;91.33;100955.34;5200064;28;20045;-73
2022/09/11 11:17:03;;;;;;;11.18;7.40;;;;;;;19.68;91.32;100952.84;5186000;28;20546;-71
2022/09/11 11:19:45;;;;;;;10.90;7.25;;;;;;;19.99;93.61;100960.41;5203351;28;20040;-72
2022/09/11 11:22:20;;;;;;;13.95;8.07;;;;;;;20.07;93.01;100957.25;5207271;28;20486;-74
2022/09/11 11:25:14;;;;;;;13.77;8.15;;;;;;;20.12;93.62;100956.00;5206371;28;20279;-73
2022/09/11 11:27:57;;;;;;;10.52;7.53;;;;;;;20.17;94.09;100955.69;5205446;28;20029;-74
2022/09/11 11:30:42;;;;;;;13.38;7.60;;;;;;;20.55;92.69;100941.44;5201627;28;20045;-73
2022/09/11 11:33:21;;;;;;;9.60;6.60;;;;;;;20.77;88.33;100945.13;5203271;28;20029;-72
2022/09/11 11:36:07;;;;;;;10.15;6.05;;;;;;;20.88;89.73;100953.19;5206423;28;20071;-73
2022/09/11 11:38:46;;;;;;;10.10;6.90;;;;;;;21.19;89.07;100950.00;5204719;28;20033;-73
2022/09/11 11:41:17;;;;;;;13.70;7.00;;;;;;;20.84;87.94;100948.19;5193402;28;20370;-73
2022/09/11 11:43:51;;;;;;;10.88;6.13;;;;;;;21.05;89.08;100952.81;5196884;28;20033;-72
2022/09/11 11:46:38;;;;;;;10.48;5.30;;;;;;;21.41;88.03;100949.28;5202712;28;20037;-72